Time;durP1;ratioP1;P1;durP2;ratioP2;P2;SDS_P1;SDS_P2;PMS_P1;PMS_P2;Temp;Humidity;BMP_temperature;BMP_pressure;BME280_temperature;BME280_humidity;BME280_pressure;Samples;Min_cycle;Max_cycle;Signal;HPM_P1;HPM_P2
2022/10/26 00:01:05;;;;;;;2.70;0.80;;;20.50;93.60;;;;;;6153560;23;45186;-68
2022/10/26 00:03:34;;;;;;;0.57;0.57;;;20.50;93.70;;;;;;6152418;23;45377;-69
2022/10/26 00:06:06;;;;;;;1.55;0.70;;;20.50;93.60;;;;;;6153330;23;45778;-68
2022/10/26 00:08:33;;;;;;;0.98;0.73;;;20.50;93.60;;;;;;6153117;23;45211;-69
2022/10/26 00:11:00;;;;;;;0.80;0.60;;;20.50;93.60;;;;;;6152788;23;45510;-69
2022/10/26 00:13:27;;;;;;;1.33;0.70;;;20.50;93.60;;;;;;6152110;23;47491;-69
2022/10/26 00:15:55;;;;;;;0.88;0.60;;;20.50;93.60;;;;;;6152961;23;45214;-69
2022/10/26 00:18:22;;;;;;;1.25;0.63;;;20.50;93.60;;;;;;6152980;23;45162;-69
2022/10/26 00:20:49;;;;;;;1.83;0.80;;;20.50;93.50;;;;;;6153621;23;45200;-69
2022/10/26 00:23:16;;;;;;;0.50;0.40;;;20.50;93.50;;;;;;6151590;23;46595;-69
2022/10/26 00:25:43;;;;;;;0.65;0.52;;;20.50;93.60;;;;;;6153173;23;45294;-68
2022/10/26 00:28:09;;;;;;;1.60;0.80;;;20.50;93.60;;;;;;6151352;23;45429;-69
2022/10/26 00:30:39;;;;;;;1.10;0.47;;;20.50;93.60;;;;;;6152831;23;45239;-68
2022/10/26 00:33:12;;;;;;;1.15;0.60;;;20.50;93.60;;;;;;6150508;23;48129;-69
2022/10/26 00:35:39;;;;;;;1.20;0.68;;;20.50;93.50;;;;;;6151293;23;45310;-68
2022/10/26 00:38:06;;;;;;;1.13;0.60;;;20.50;93.50;;;;;;6152287;23;45308;-68
2022/10/26 00:40:32;;;;;;;0.90;0.80;;;20.50;93.50;;;;;;6152462;23;45272;-69
2022/10/26 00:43:00;;;;;;;0.80;0.60;;;20.50;93.50;;;;;;6152585;23;46210;-69
2022/10/26 00:45:29;;;;;;;0.57;0.50;;;20.50;93.50;;;;;;6153236;23;45209;-69
2022/10/26 00:47:59;;;;;;;0.95;0.60;;;20.50;93.90;;;;;;6153343;23;45269;-69
2022/10/26 00:50:32;;;;;;;1.73;0.68;;;20.50;93.40;;;;;;6153320;23;45200;-69
2022/10/26 00:53:02;;;;;;;0.68;0.40;;;20.50;93.40;;;;;;6151451;23;47106;-68
2022/10/26 00:55:32;;;;;;;1.58;0.60;;;20.50;93.30;;;;;;6153180;23;45288;-69
2022/10/26 00:58:00;;;;;;;1.73;0.65;;;20.50;93.30;;;;;;6152924;23;45236;-69
2022/10/26 01:00:27;;;;;;;0.57;0.57;;;20.50;93.30;;;;;;6153631;23;45349;-69
2022/10/26 01:02:57;;;;;;;1.10;0.70;;;20.50;93.20;;;;;;6153150;23;46578;-69
2022/10/26 01:05:25;;;;;;;1.48;0.50;;;20.50;93.20;;;;;;6152202;23;45275;-69
2022/10/26 01:07:54;;;;;;;1.55;0.60;;;20.50;93.30;;;;;;6153067;23;45254;-68
2022/10/26 01:10:21;;;;;;;1.10;0.70;;;20.50;93.30;;;;;;6152122;23;45491;-69
2022/10/26 01:12:48;;;;;;;1.10;0.70;;;20.50;93.20;;;;;;6152490;23;46587;-69
2022/10/26 01:15:15;;;;;;;1.02;0.60;;;20.50;93.30;;;;;;6152619;23;45233;-69
2022/10/26 01:17:54;;;;;;;0.50;0.50;;;20.50;93.20;;;;;;6152703;23;45257;-69
2022/10/26 01:20:59;;;;;;;0.85;0.47;;;20.50;93.30;;;;;;6153457;23;45194;-69
2022/10/26 01:23:34;;;;;;;0.70;0.52;;;20.50;93.30;;;;;;6151674;23;45366;-68
2022/10/26 01:26:31;;;;;;;1.25;0.55;;;20.50;93.30;;;;;;6152996;23;45353;-68
2022/10/26 01:29:26;;;;;;;0.70;0.50;;;20.50;93.30;;;;;;6149548;23;45465;-69
2022/10/26 01:31:58;;;;;;;1.50;0.50;;;20.50;93.30;;;;;;6153449;23;45552;-69
2022/10/26 01:34:31;;;;;;;1.40;0.50;;;20.50;93.30;;;;;;6151666;23;46044;-69
2022/10/26 01:37:05;;;;;;;1.02;0.50;;;20.50;93.30;;;;;;6152233;23;45210;-69
2022/10/26 01:39:38;;;;;;;0.75;0.57;;;20.50;93.30;;;;;;6152357;23;45317;-68
2022/10/26 01:42:07;;;;;;;0.85;0.60;;;20.50;93.20;;;;;;6153080;23;45488;-69
2022/10/26 01:44:41;;;;;;;0.47;0.38;;;20.50;93.20;;;;;;6151938;23;45242;-69
2022/10/26 01:47:12;;;;;;;1.42;0.60;;;20.50;93.20;;;;;;6152487;23;45407;-68
2022/10/26 01:49:41;;;;;;;1.05;0.60;;;20.50;93.20;;;;;;6153067;23;45230;-69
2022/10/26 01:52:09;;;;;;;0.50;0.50;;;20.50;93.20;;;;;;6152532;23;45380;-68
2022/10/26 01:54:36;;;;;;;1.73;0.77;;;20.50;93.20;;;;;;6152126;23;45405;-69
2022/10/26 01:57:05;;;;;;;1.05;0.45;;;20.50;93.20;;;;;;6151530;23;45348;-69
2022/10/26 01:59:45;;;;;;;0.98;0.40;;;20.50;93.50;;;;;;6152515;23;45294;-69
2022/10/26 02:02:32;;;;;;;0.82;0.50;;;20.50;93.10;;;;;;6152956;23;45245;-68
2022/10/26 02:05:14;;;;;;;0.57;0.57;;;20.50;93.00;;;;;;6151602;23;47227;-69
2022/10/26 02:07:50;;;;;;;0.88;0.55;;;20.50;92.80;;;;;;6151226;23;45265;-69
2022/10/26 02:10:29;;;;;;;0.57;0.52;;;20.50;92.90;;;;;;6151584;23;45367;-69
2022/10/26 02:13:02;;;;;;;1.38;0.68;;;20.50;92.90;;;;;;6152750;23;45436;-69
2022/10/26 02:15:39;;;;;;;2.60;0.57;;;20.50;92.90;;;;;;6150571;23;48558;-69
2022/10/26 02:18:16;;;;;;;1.75;0.50;;;20.50;92.80;;;;;;6152823;23;45313;-68
2022/10/26 02:20:47;;;;;;;1.60;0.40;;;20.50;92.90;;;;;;6153070;23;45333;-69
2022/10/26 02:23:15;;;;;;;1.20;0.50;;;20.40;92.80;;;;;;6151437;23;45320;-69
2022/10/26 02:25:47;;;;;;;2.28;0.70;;;20.50;93.30;;;;;;6152122;23;46674;-68
2022/10/26 02:28:18;;;;;;;0.75;0.40;;;20.50;93.40;;;;;;6150850;23;45273;-69
2022/10/26 02:30:47;;;;;;;0.40;0.40;;;20.50;93.00;;;;;;6152763;23;45225;-69
2022/10/26 02:33:17;;;;;;;1.00;0.50;;;20.50;93.00;;;;;;6151653;23;45205;-69
2022/10/26 02:35:48;;;;;;;1.08;0.45;;;20.50;93.00;;;;;;6151838;23;47280;-69
2022/10/26 02:38:18;;;;;;;0.45;0.40;;;20.50;93.00;;;;;;6151737;23;45706;-68
2022/10/26 02:40:47;;;;;;;0.52;0.40;;;20.50;93.00;;;;;;6151535;23;45275;-68
2022/10/26 02:43:20;;;;;;;1.73;0.40;;;20.50;93.10;;;;;;6151666;23;45498;-69
2022/10/26 02:45:51;;;;;;;0.40;0.32;;;20.50;93.10;;;;;;6150486;23;47640;-68
2022/10/26 02:48:19;;;;;;;0.30;0.30;;;20.50;93.00;;;;;;6151576;23;45218;-69
2022/10/26 02:50:54;;;;;;;1.25;0.40;;;20.50;93.10;;;;;;6150376;23;45513;-69
2022/10/26 02:53:27;;;;;;;1.00;0.45;;;20.50;93.00;;;;;;6151140;23;45273;-68
2022/10/26 02:55:54;;;;;;;0.73;0.50;;;20.50;92.90;;;;;;6150863;23;45275;-69
2022/10/26 02:58:25;;;;;;;0.98;0.50;;;20.50;92.80;;;;;;6151897;23;45272;-68
2022/10/26 03:00:52;;;;;;;0.90;0.50;;;20.50;92.90;;;;;;6152297;23;45256;-68
2022/10/26 03:03:21;;;;;;;0.45;0.38;;;20.50;92.80;;;;;;6151292;23;45311;-69
2022/10/26 03:05:48;;;;;;;0.47;0.38;;;20.50;92.80;;;;;;6149431;23;46948;-68
2022/10/26 03:08:14;;;;;;;1.33;0.57;;;20.40;92.70;;;;;;6151406;23;45245;-69
2022/10/26 03:10:43;;;;;;;0.50;0.47;;;20.50;92.80;;;;;;6150773;23;45390;-69
2022/10/26 03:13:11;;;;;;;0.52;0.40;;;20.50;92.80;;;;;;6150838;23;45531;-69
2022/10/26 03:15:39;;;;;;;0.47;0.32;;;20.50;92.60;;;;;;6150534;23;46380;-68
2022/10/26 03:18:06;;;;;;;0.47;0.45;;;20.50;92.90;;;;;;6150579;23;45371;-69
2022/10/26 03:20:34;;;;;;;1.02;0.50;;;20.50;92.70;;;;;;6151689;23;45306;-69
2022/10/26 03:23:01;;;;;;;1.13;0.50;;;20.50;92.80;;;;;;6150227;23;45535;-69
2022/10/26 03:25:28;;;;;;;0.30;0.30;;;20.50;92.80;;;;;;6152361;23;48568;-69
2022/10/26 03:27:58;;;;;;;0.47;0.30;;;20.50;92.70;;;;;;6149428;23;45404;-68
2022/10/26 03:30:25;;;;;;;0.50;0.30;;;20.40;92.50;;;;;;6151301;23;45146;-69
2022/10/26 03:32:52;;;;;;;0.70;0.40;;;20.50;92.50;;;;;;6150563;23;45511;-68
2022/10/26 03:35:19;;;;;;;0.40;0.40;;;20.40;92.50;;;;;;6151675;23;45447;-69
2022/10/26 03:37:47;;;;;;;0.80;0.45;;;20.40;92.50;;;;;;6151478;23;45182;-68
2022/10/26 03:40:15;;;;;;;0.93;0.40;;;20.40;92.60;;;;;;6149652;23;45250;-69
2022/10/26 03:42:42;;;;;;;0.50;0.40;;;20.40;92.60;;;;;;6149205;23;45375;-69
2022/10/26 03:45:10;;;;;;;0.32;0.30;;;20.40;92.60;;;;;;6149174;23;46351;-68
2022/10/26 03:47:43;;;;;;;1.33;0.70;;;20.40;92.60;;;;;;6151365;23;45446;-68
2022/10/26 03:50:11;;;;;;;0.37;0.37;;;20.40;92.50;;;;;;6151044;23;45281;-68
2022/10/26 03:52:38;;;;;;;0.85;0.35;;;20.40;92.50;;;;;;6151934;23;45540;-70
2022/10/26 03:55:07;;;;;;;0.93;0.50;;;20.40;92.30;;;;;;6151088;23;46594;-69
2022/10/26 03:57:34;;;;;;;0.88;0.50;;;20.40;92.10;;;;;;6150833;23;45496;-68
2022/10/26 04:00:02;;;;;;;0.60;0.40;;;20.40;92.10;;;;;;6153070;23;45453;-68
2022/10/26 04:02:28;;;;;;;0.90;0.40;;;20.40;92.10;;;;;;6152281;23;45511;-68
2022/10/26 04:04:55;;;;;;;2.85;0.70;;;20.40;92.20;;;;;;6151423;23;46223;-68
2022/10/26 04:07:22;;;;;;;5.35;0.50;;;20.40;92.50;;;;;;6152773;23;45313;-69
2022/10/26 04:09:48;;;;;;;0.50;0.50;;;20.40;92.40;;;;;;6153231;23;45273;-68
2022/10/26 04:12:17;;;;;;;0.95;0.32;;;20.40;92.40;;;;;;6153189;23;45202;-68
2022/10/26 04:14:43;;;;;;;1.15;0.52;;;20.40;92.30;;;;;;6150025;23;47069;-68
2022/10/26 04:17:10;;;;;;;1.15;0.60;;;20.40;92.40;;;;;;6151477;23;45257;-69
2022/10/26 04:19:37;;;;;;;3.17;0.47;;;20.40;92.30;;;;;;6151871;23;45356;-68
2022/10/26 04:22:04;;;;;;;1.80;0.50;;;20.50;92.40;;;;;;6151513;23;45349;-68
2022/10/26 04:24:31;;;;;;;2.38;0.70;;;20.50;92.30;;;;;;6151178;23;46568;-68
2022/10/26 04:26:58;;;;;;;0.85;0.38;;;20.50;92.40;;;;;;6152619;23;45204;-68
2022/10/26 04:29:26;;;;;;;0.55;0.30;;;20.50;92.40;;;;;;6152681;23;45459;-69
2022/10/26 04:31:53;;;;;;;1.58;0.50;;;20.40;92.40;;;;;;6153548;23;45208;-69
2022/10/26 04:34:19;;;;;;;0.57;0.40;;;20.50;92.50;;;;;;6152034;23;47486;-68
2022/10/26 04:36:46;;;;;;;0.63;0.40;;;20.50;92.40;;;;;;6153251;23;45323;-69
2022/10/26 04:39:13;;;;;;;1.60;0.40;;;20.50;92.60;;;;;;6152764;23;45381;-69
2022/10/26 04:41:39;;;;;;;0.45;0.30;;;20.50;92.60;;;;;;6152379;23;45367;-68
2022/10/26 04:44:06;;;;;;;0.50;0.30;;;20.50;92.50;;;;;;6152320;23;48097;-68
2022/10/26 04:46:34;;;;;;;2.35;0.52;;;20.50;92.60;;;;;;6152321;23;45285;-68
2022/10/26 04:49:01;;;;;;;1.25;0.40;;;20.50;92.60;;;;;;6152902;23;45357;-69
2022/10/26 04:51:28;;;;;;;0.38;0.38;;;20.50;92.60;;;;;;6153493;23;45273;-69
2022/10/26 04:53:54;;;;;;;0.52;0.40;;;20.50;92.60;;;;;;6151382;23;45272;-68
2022/10/26 04:56:21;;;;;;;1.65;0.52;;;20.50;92.40;;;;;;6153204;23;45269;-69
2022/10/26 04:58:48;;;;;;;2.05;0.40;;;20.50;92.60;;;;;;6152389;23;45273;-69
2022/10/26 05:01:15;;;;;;;0.70;0.50;;;20.50;92.60;;;;;;6153453;23;45270;-69
2022/10/26 05:03:43;;;;;;;1.55;0.50;;;20.50;92.50;;;;;;6151514;23;46023;-68
2022/10/26 05:06:09;;;;;;;0.98;0.30;;;20.50;92.60;;;;;;6152823;23;45271;-69
2022/10/26 05:08:36;;;;;;;1.10;0.40;;;20.50;92.50;;;;;;6152958;23;45336;-69
2022/10/26 05:11:03;;;;;;;0.63;0.30;;;20.50;92.70;;;;;;6152206;23;45186;-69
2022/10/26 05:13:30;;;;;;;0.38;0.30;;;20.50;92.50;;;;;;6152463;23;46318;-69
2022/10/26 05:15:57;;;;;;;1.00;0.45;;;20.50;92.60;;;;;;6152446;23;45261;-68
2022/10/26 05:18:25;;;;;;;0.47;0.30;;;20.50;92.70;;;;;;6153205;23;45433;-69
2022/10/26 05:20:54;;;;;;;0.77;0.40;;;20.50;92.70;;;;;;6153236;23;45206;-69
2022/10/26 05:23:21;;;;;;;1.45;0.43;;;20.50;92.60;;;;;;6151407;23;45277;-69
2022/10/26 05:25:48;;;;;;;0.57;0.40;;;20.50;92.70;;;;;;6152562;23;45427;-69
2022/10/26 05:28:17;;;;;;;1.10;0.55;;;20.50;92.70;;;;;;6150905;23;45389;-68
2022/10/26 05:30:45;;;;;;;0.82;0.43;;;20.50;92.70;;;;;;6152926;23;45203;-69
2022/10/26 05:33:13;;;;;;;0.93;0.65;;;20.50;92.60;;;;;;6151619;23;48297;-69
2022/10/26 05:35:40;;;;;;;1.95;0.40;;;20.50;92.60;;;;;;6152731;23;45518;-68
2022/10/26 05:38:09;;;;;;;0.60;0.40;;;20.50;92.70;;;;;;6152513;23;45421;-68
2022/10/26 05:40:36;;;;;;;0.63;0.50;;;20.50;92.70;;;;;;6152341;23;45706;-69
2022/10/26 05:43:03;;;;;;;0.55;0.40;;;20.50;92.70;;;;;;6151643;23;45223;-69
2022/10/26 05:45:30;;;;;;;0.68;0.40;;;20.50;92.70;;;;;;6151917;23;45253;-69
2022/10/26 05:47:56;;;;;;;0.63;0.40;;;20.50;92.70;;;;;;6152705;23;45325;-69
2022/10/26 05:50:23;;;;;;;0.50;0.45;;;20.50;92.70;;;;;;6152847;23;45392;-69
2022/10/26 05:52:50;;;;;;;2.42;0.32;;;20.50;92.70;;;;;;6151865;23;48336;-70
2022/10/26 05:55:19;;;;;;;0.70;0.35;;;20.50;92.70;;;;;;6152209;23;45226;-69
2022/10/26 05:57:47;;;;;;;0.65;0.43;;;20.50;92.50;;;;;;6152528;23;45202;-69
2022/10/26 06:00:17;;;;;;;1.65;0.40;;;20.50;92.60;;;;;;6152940;23;45361;-68
2022/10/26 06:02:55;;;;;;;0.88;0.30;;;20.50;92.70;;;;;;6152690;23;45359;-69
2022/10/26 06:05:26;;;;;;;2.60;0.40;;;20.50;92.60;;;;;;6152255;23;45270;-68
2022/10/26 06:07:54;;;;;;;0.32;0.30;;;20.50;92.70;;;;;;6152547;23;45318;-68
2022/10/26 06:10:23;;;;;;;0.47;0.40;;;20.50;92.60;;;;;;6152516;23;45346;-68
2022/10/26 06:12:51;;;;;;;0.55;0.35;;;20.50;92.60;;;;;;6152637;23;45369;-69
2022/10/26 06:15:20;;;;;;;0.35;0.30;;;20.50;92.50;;;;;;6150510;23;45289;-69
2022/10/26 06:17:59;;;;;;;0.77;0.40;;;20.50;92.50;;;;;;6152534;23;45282;-69
2022/10/26 06:20:45;;;;;;;0.52;0.43;;;20.50;92.60;;;;;;6153318;23;45273;-69
2022/10/26 06:23:32;;;;;;;0.85;0.47;;;20.50;92.50;;;;;;6151738;23;45428;-69
2022/10/26 06:26:07;;;;;;;1.98;0.47;;;20.50;92.70;;;;;;6152650;23;45786;-69
2022/10/26 06:28:40;;;;;;;1.77;0.30;;;20.50;92.60;;;;;;6152125;23;45229;-68
2022/10/26 06:31:07;;;;;;;1.50;0.50;;;20.50;92.60;;;;;;6153194;23;45362;-69
2022/10/26 06:33:34;;;;;;;0.65;0.47;;;20.50;92.60;;;;;;6150925;23;45377;-69
2022/10/26 06:36:15;;;;;;;0.63;0.30;;;20.50;92.70;;;;;;6152963;23;45350;-69
2022/10/26 06:38:44;;;;;;;1.73;0.40;;;20.50;92.60;;;;;;6151115;23;45399;-69
2022/10/26 06:41:17;;;;;;;0.40;0.40;;;20.50;92.60;;;;;;6152227;23;45322;-68
2022/10/26 06:43:45;;;;;;;0.40;0.40;;;20.50;92.60;;;;;;6151817;23;47930;-69
2022/10/26 06:46:16;;;;;;;0.75;0.43;;;20.50;92.70;;;;;;6151399;23;45254;-69
2022/10/26 06:48:51;;;;;;;0.43;0.43;;;20.50;92.70;;;;;;6152567;23;45336;-69
2022/10/26 06:51:19;;;;;;;1.00;0.57;;;20.50;92.60;;;;;;6151696;23;45618;-68
2022/10/26 06:53:53;;;;;;;1.10;0.40;;;20.50;92.60;;;;;;6150349;23;47521;-69
2022/10/26 06:56:23;;;;;;;1.25;0.50;;;20.50;92.60;;;;;;6150751;23;45217;-68
2022/10/26 06:58:52;;;;;;;1.10;0.40;;;20.50;92.60;;;;;;6152148;23;45273;-69
2022/10/26 07:01:19;;;;;;;0.93;0.38;;;20.50;92.70;;;;;;6152315;23;45186;-68
2022/10/26 07:03:46;;;;;;;1.08;0.38;;;20.40;92.50;;;;;;6147889;23;47784;-69
2022/10/26 07:06:13;;;;;;;0.63;0.52;;;20.50;92.50;;;;;;6150615;23;45213;-69
2022/10/26 07:08:39;;;;;;;0.70;0.38;;;20.50;92.50;;;;;;6151320;23;45401;-68
2022/10/26 07:11:08;;;;;;;0.98;0.50;;;20.40;92.40;;;;;;6152086;23;45396;-69
2022/10/26 07:13:36;;;;;;;1.17;0.40;;;20.50;92.50;;;;;;6151352;23;47234;-68
2022/10/26 07:16:02;;;;;;;1.15;0.50;;;20.50;92.60;;;;;;6150959;23;45453;-68
2022/10/26 07:18:29;;;;;;;1.30;0.60;;;20.40;92.40;;;;;;6152507;23;45368;-69
2022/10/26 07:20:58;;;;;;;3.17;0.60;;;20.40;92.50;;;;;;6151424;23;45546;-69
2022/10/26 07:23:25;;;;;;;0.60;0.40;;;20.50;92.50;;;;;;6151123;23;46356;-69
2022/10/26 07:25:52;;;;;;;0.80;0.30;;;20.50;92.60;;;;;;6151655;23;45163;-69
2022/10/26 07:28:18;;;;;;;0.55;0.30;;;20.50;92.60;;;;;;6151768;23;45390;-69
2022/10/26 07:30:46;;;;;;;0.55;0.50;;;20.50;92.60;;;;;;6153582;23;45511;-69
2022/10/26 07:33:14;;;;;;;0.82;0.40;;;20.50;92.60;;;;;;6151931;23;47062;-69
2022/10/26 07:35:41;;;;;;;0.60;0.45;;;20.50;92.60;;;;;;6153648;23;45299;-69
2022/10/26 07:38:08;;;;;;;0.63;0.50;;;20.50;92.50;;;;;;6152424;23;45170;-69
2022/10/26 07:40:36;;;;;;;0.52;0.32;;;20.50;92.70;;;;;;6153509;23;45407;-69
2022/10/26 07:43:03;;;;;;;0.65;0.38;;;20.50;92.70;;;;;;6152534;23;47563;-68
2022/10/26 07:45:30;;;;;;;0.30;0.25;;;20.50;92.70;;;;;;6152336;23;45349;-68
2022/10/26 07:47:58;;;;;;;0.63;0.47;;;20.50;92.70;;;;;;6152026;23;45169;-69
2022/10/26 07:50:25;;;;;;;0.73;0.60;;;20.50;92.60;;;;;;6153101;23;45496;-68
2022/10/26 07:52:53;;;;;;;1.23;0.47;;;20.50;92.60;;;;;;6153369;23;46447;-69
2022/10/26 07:55:21;;;;;;;1.10;0.63;;;20.50;92.60;;;;;;6151613;23;45222;-69
2022/10/26 07:57:47;;;;;;;2.03;0.30;;;20.50;92.50;;;;;;6153193;23;45254;-69
2022/10/26 08:00:15;;;;;;;0.38;0.38;;;20.50;92.50;;;;;;6153304;23;45539;-69
2022/10/26 08:02:42;;;;;;;1.10;0.50;;;20.40;92.50;;;;;;6149904;23;46302;-68
2022/10/26 08:05:10;;;;;;;0.68;0.30;;;20.50;92.40;;;;;;6152432;23;46355;-69
2022/10/26 08:07:42;;;;;;;0.98;0.40;;;20.50;92.40;;;;;;6152633;23;45285;-68
2022/10/26 08:10:09;;;;;;;0.77;0.50;;;20.50;92.40;;;;;;6153223;23;45302;-69
2022/10/26 08:12:36;;;;;;;0.90;0.47;;;20.50;92.30;;;;;;6152653;23;47586;-69
2022/10/26 08:15:03;;;;;;;0.68;0.40;;;20.50;92.10;;;;;;6152084;23;45338;-68
2022/10/26 08:17:30;;;;;;;1.38;0.50;;;20.50;92.10;;;;;;6153219;23;45462;-69
2022/10/26 08:19:57;;;;;;;0.55;0.43;;;20.60;92.10;;;;;;6152904;23;45518;-68
2022/10/26 08:22:25;;;;;;;1.85;0.50;;;20.60;92.10;;;;;;6152757;23;46612;-68
2022/10/26 08:24:51;;;;;;;0.68;0.40;;;20.60;92.10;;;;;;6152489;23;45826;-68
2022/10/26 08:27:18;;;;;;;1.50;0.40;;;20.60;92.00;;;;;;6152039;23;45301;-68
2022/10/26 08:29:45;;;;;;;1.27;0.63;;;20.60;92.00;;;;;;6153268;23;45613;-68
2022/10/26 08:32:11;;;;;;;1.48;0.50;;;20.70;92.10;;;;;;6152288;23;46567;-69
2022/10/26 08:34:38;;;;;;;0.43;0.30;;;20.70;92.10;;;;;;6152005;23;45336;-69
2022/10/26 08:37:05;;;;;;;1.17;0.60;;;20.60;92.10;;;;;;6153041;23;45481;-69
2022/10/26 08:39:33;;;;;;;1.05;0.60;;;20.70;92.10;;;;;;6152377;23;45293;-68
2022/10/26 08:42:06;;;;;;;1.75;0.60;;;20.70;92.00;;;;;;6153056;23;46611;-69
2022/10/26 08:44:39;;;;;;;1.38;0.60;;;20.70;92.10;;;;;;6151551;23;45282;-69
2022/10/26 08:47:14;;;;;;;1.67;0.68;;;20.60;92.00;;;;;;6152535;23;45231;-67
2022/10/26 08:49:46;;;;;;;0.30;0.30;;;20.70;92.00;;;;;;6153167;23;45271;-69
2022/10/26 08:52:18;;;;;;;1.10;0.60;;;20.60;92.30;;;;;;6152879;23;48043;-68
2022/10/26 08:54:51;;;;;;;1.67;0.50;;;20.60;92.80;;;;;;6152417;23;45258;-68
2022/10/26 08:57:24;;;;;;;1.30;0.57;;;20.60;92.30;;;;;;6154067;23;45280;-69
2022/10/26 08:59:56;;;;;;;3.53;0.60;;;20.60;92.30;;;;;;6153790;23;45386;-69
2022/10/26 09:02:23;;;;;;;1.08;0.47;;;20.60;92.30;;;;;;6152600;23;46083;-68
2022/10/26 09:04:51;;;;;;;1.00;0.43;;;20.60;92.20;;;;;;6152655;23;45391;-69
2022/10/26 09:07:39;;;;;;;1.02;0.50;;;20.60;92.20;;;;;;6152799;23;45230;-68
2022/10/26 09:10:19;;;;;;;0.80;0.45;;;20.70;92.20;;;;;;6152751;23;45353;-69
2022/10/26 09:12:51;;;;;;;2.08;0.65;;;20.60;92.10;;;;;;6150636;23;47100;-69
2022/10/26 09:15:27;;;;;;;2.17;0.88;;;20.70;92.20;;;;;;6152215;23;45306;-69
2022/10/26 09:18:07;;;;;;;1.25;0.50;;;20.60;92.10;;;;;;6153234;23;45250;-69
2022/10/26 09:20:51;;;;;;;0.85;0.38;;;20.70;92.10;;;;;;6153005;23;45350;-69
2022/10/26 09:23:31;;;;;;;1.10;0.57;;;20.70;92.10;;;;;;6152690;23;46275;-68
2022/10/26 09:26:02;;;;;;;0.60;0.50;;;20.70;92.10;;;;;;6152520;23;45914;-69
2022/10/26 09:28:34;;;;;;;1.75;0.80;;;20.60;92.20;;;;;;6153463;23;45381;-69
2022/10/26 09:31:03;;;;;;;0.60;0.40;;;20.60;92.20;;;;;;6152796;23;45465;-69
2022/10/26 09:33:34;;;;;;;1.77;0.70;;;20.60;92.20;;;;;;6152938;23;46284;-69
2022/10/26 09:36:05;;;;;;;1.35;0.47;;;20.70;92.20;;;;;;6153580;23;45166;-69
2022/10/26 09:38:35;;;;;;;1.25;0.60;;;20.60;92.20;;;;;;6151998;23;45418;-69
2022/10/26 09:41:10;;;;;;;1.83;0.70;;;20.60;92.20;;;;;;6153392;23;45205;-69
2022/10/26 09:43:43;;;;;;;0.80;0.43;;;20.60;92.10;;;;;;6151687;23;45463;-69
2022/10/26 09:46:15;;;;;;;2.05;0.93;;;20.60;92.20;;;;;;6153176;23;45452;-69
2022/10/26 09:48:48;;;;;;;1.60;0.60;;;20.70;92.30;;;;;;6151762;23;45326;-69
2022/10/26 09:51:16;;;;;;;1.30;0.45;;;20.70;92.30;;;;;;6153092;23;45337;-68
2022/10/26 09:53:43;;;;;;;0.88;0.75;;;20.60;92.30;;;;;;6151367;23;46276;-69
2022/10/26 09:56:13;;;;;;;1.52;0.50;;;20.60;92.40;;;;;;6153002;23;45758;-69
2022/10/26 09:58:42;;;;;;;1.65;0.73;;;20.60;92.40;;;;;;6153375;23;45159;-69
2022/10/26 10:01:21;;;;;;;1.60;0.60;;;20.60;92.40;;;;;;6152880;23;45409;-69
2022/10/26 10:03:48;;;;;;;0.70;0.50;;;20.60;92.40;;;;;;6152022;23;47047;-69
2022/10/26 10:06:17;;;;;;;0.93;0.43;;;20.60;92.40;;;;;;6152231;23;45365;-69
2022/10/26 10:08:45;;;;;;;0.80;0.60;;;20.60;92.50;;;;;;6152910;23;45323;-68
2022/10/26 10:11:14;;;;;;;0.68;0.40;;;20.60;92.50;;;;;;6151136;23;45176;-69
2022/10/26 10:13:42;;;;;;;1.38;0.60;;;20.60;92.50;;;;;;6150818;23;46984;-69
2022/10/26 10:16:13;;;;;;;2.15;0.55;;;20.60;92.50;;;;;;6152850;23;45430;-69
2022/10/26 10:18:41;;;;;;;1.85;0.52;;;20.60;92.50;;;;;;6152723;23;45224;-69
2022/10/26 10:21:10;;;;;;;1.48;0.77;;;20.70;92.50;;;;;;6152999;23;45365;-69
2022/10/26 10:23:46;;;;;;;1.90;0.75;;;20.60;92.50;;;;;;6152017;23;45278;-69
2022/10/26 10:26:15;;;;;;;0.88;0.60;;;20.70;92.90;;;;;;6153247;23;45236;-70
2022/10/26 10:28:42;;;;;;;1.23;0.60;;;20.70;92.50;;;;;;6152110;23;45329;-69
2022/10/26 10:31:20;;;;;;;0.95;0.40;;;20.70;92.50;;;;;;6152710;23;45418;-69
2022/10/26 10:33:48;;;;;;;1.02;0.60;;;20.70;92.50;;;;;;6152229;23;47327;-69
2022/10/26 10:36:18;;;;;;;0.52;0.40;;;20.70;92.50;;;;;;6152333;23;45301;-69
2022/10/26 10:38:47;;;;;;;0.98;0.57;;;20.70;92.60;;;;;;6152299;23;45392;-69
2022/10/26 10:41:25;;;;;;;2.45;0.55;;;20.60;92.60;;;;;;6151796;23;45374;-69
2022/10/26 10:43:55;;;;;;;1.38;0.50;;;20.60;92.60;;;;;;6151910;23;45435;-69
2022/10/26 10:46:26;;;;;;;0.43;0.43;;;20.70;92.60;;;;;;6151941;23;45225;-69
2022/10/26 10:49:01;;;;;;;0.40;0.30;;;20.60;92.60;;;;;;6153038;23;45279;-69
2022/10/26 10:51:30;;;;;;;1.98;0.55;;;20.70;92.60;;;;;;6152467;23;45260;-69
2022/10/26 10:53:57;;;;;;;0.93;0.57;;;20.70;92.60;;;;;;6151526;23;45376;-69
2022/10/26 10:56:33;;;;;;;0.95;0.50;;;20.70;92.60;;;;;;6152615;23;45218;-68
2022/10/26 10:59:11;;;;;;;1.13;0.50;;;20.60;92.60;;;;;;6152110;23;45217;-69
2022/10/26 11:01:40;;;;;;;0.40;0.40;;;20.70;92.60;;;;;;6152693;23;45379;-69
2022/10/26 11:04:44;;;;;;;0.50;0.40;;;20.70;92.70;;;;;;6152417;23;45474;-69
2022/10/26 11:07:14;;;;;;;0.63;0.40;;;20.70;92.60;;;;;;6152691;23;45287;-69
2022/10/26 11:09:43;;;;;;;0.30;0.30;;;20.60;92.50;;;;;;6152920;23;45183;-69
2022/10/26 11:12:16;;;;;;;1.15;0.60;;;20.70;92.50;;;;;;6151141;23;45349;-69
2022/10/26 11:14:45;;;;;;;0.77;0.30;;;20.70;92.50;;;;;;6152690;23;47752;-69
2022/10/26 11:17:18;;;;;;;0.65;0.35;;;20.70;92.40;;;;;;6153567;23;45222;-69
2022/10/26 11:19:49;;;;;;;0.70;0.40;;;20.70;92.50;;;;;;6154106;23;45279;-69
2022/10/26 11:22:21;;;;;;;1.95;0.70;;;20.70;92.50;;;;;;6153525;23;45238;-69
2022/10/26 11:24:54;;;;;;;0.73;0.40;;;20.70;92.40;;;;;;6153271;23;46439;-69
2022/10/26 11:27:28;;;;;;;0.98;0.52;;;20.70;92.40;;;;;;6152850;23;45423;-69
2022/10/26 11:30:02;;;;;;;1.08;0.50;;;20.70;92.40;;;;;;6153941;23;45409;-69
2022/10/26 11:32:34;;;;;;;1.80;0.30;;;20.70;92.40;;;;;;6153437;23;45242;-69
2022/10/26 11:35:11;;;;;;;0.95;0.50;;;20.70;92.40;;;;;;6152717;23;48309;-69
2022/10/26 11:37:45;;;;;;;0.80;0.30;;;20.70;92.30;;;;;;6153427;23;45294;-70
2022/10/26 11:40:22;;;;;;;0.70;0.50;;;20.70;92.30;;;;;;6153803;23;45313;-69
2022/10/26 11:42:56;;;;;;;0.50;0.40;;;20.70;92.40;;;;;;6153810;23;45320;-69
2022/10/26 11:45:25;;;;;;;0.55;0.50;;;20.70;92.40;;;;;;6151973;23;46386;-69
2022/10/26 11:47:59;;;;;;;0.30;0.30;;;20.70;92.40;;;;;;6153558;23;45241;-69
2022/10/26 11:50:29;;;;;;;0.30;0.30;;;20.70;92.40;;;;;;6152993;23;45252;-69
2022/10/26 11:53:00;;;;;;;0.45;0.30;;;20.70;92.40;;;;;;6153737;23;45380;-69
2022/10/26 11:55:28;;;;;;;0.40;0.30;;;20.70;92.40;;;;;;6152221;23;46068;-69
2022/10/26 11:57:57;;;;;;;1.33;0.47;;;20.70;92.40;;;;;;6153184;23;45238;-70
2022/10/26 12:00:26;;;;;;;0.40;0.35;;;20.70;92.40;;;;;;6153637;23;45301;-69
2022/10/26 12:02:57;;;;;;;0.32;0.32;;;20.70;92.40;;;;;;6153070;23;45438;-69
2022/10/26 12:05:34;;;;;;;0.70;0.40;;;20.70;92.40;;;;;;6152838;23;48093;-67
2022/10/26 12:08:06;;;;;;;0.65;0.35;;;20.70;92.40;;;;;;6152795;23;45435;-69
2022/10/26 12:10:35;;;;;;;0.88;0.47;;;20.70;92.30;;;;;;6153490;23;45311;-69
2022/10/26 12:13:15;;;;;;;0.95;0.40;;;20.70;92.30;;;;;;6150142;23;45295;-69
2022/10/26 12:15:46;;;;;;;0.50;0.40;;;20.80;92.40;;;;;;6152390;23;46240;-69
2022/10/26 12:18:16;;;;;;;0.95;0.45;;;20.70;92.30;;;;;;6153493;23;45202;-70
2022/10/26 12:21:01;;;;;;;0.60;0.30;;;20.70;92.40;;;;;;6153004;23;45371;-68
2022/10/26 12:23:29;;;;;;;0.50;0.20;;;20.70;92.40;;;;;;6153707;23;45142;-68
2022/10/26 12:26:29;;;;;;;0.50;0.40;;;20.70;92.40;;;;;;6152418;23;46118;-68
2022/10/26 12:29:24;;;;;;;0.35;0.32;;;20.70;92.40;;;;;;6152964;23;45376;-69
2022/10/26 12:31:51;;;;;;;1.13;0.60;;;20.70;92.40;;;;;;6152873;23;45159;-68
2022/10/26 12:34:24;;;;;;;1.10;0.63;;;20.70;92.40;;;;;;6153095;23;45259;-69
2022/10/26 12:37:11;;;;;;;2.40;0.43;;;20.70;92.40;;;;;;6152358;23;47263;-69
2022/10/26 12:39:40;;;;;;;0.75;0.40;;;20.70;92.40;;;;;;6153475;23;45262;-69
2022/10/26 12:42:29;;;;;;;1.73;0.60;;;20.70;92.40;;;;;;6153223;23;45372;-69
2022/10/26 12:45:16;;;;;;;0.55;0.40;;;20.70;92.40;;;;;;6152944;23;45226;-69
2022/10/26 12:48:04;;;;;;;1.27;0.40;;;20.70;92.40;;;;;;6153163;23;46223;-69
2022/10/26 12:50:30;;;;;;;0.60;0.40;;;20.70;92.40;;;;;;6152409;23;45367;-68
2022/10/26 12:53:00;;;;;;;1.60;0.65;;;20.70;92.50;;;;;;6153603;23;45420;-68
2022/10/26 12:55:50;;;;;;;1.63;0.50;;;20.70;92.50;;;;;;6152082;23;45399;-69
2022/10/26 12:58:56;;;;;;;1.35;0.57;;;20.70;92.50;;;;;;6153460;23;46275;-67
2022/10/26 13:01:53;;;;;;;3.42;1.05;;;20.70;94.00;;;;;;6127799;23;45348;-69
2022/10/26 13:04:50;;;;;;;1.10;0.73;;;20.80;96.10;;;;;;6153270;23;45227;-71
2022/10/26 13:07:22;;;;;;;2.03;0.47;;;20.80;96.60;;;;;;6154394;23;45278;-71